Time;durP1;ratioP1;P1;durP2;ratioP2;P2;SDS_P1;SDS_P2;PMS_P1;PMS_P2;Temp;Humidity;BMP_temperature;BMP_pressure;BME280_temperature;BME280_humidity;BME280_pressure;Samples;Min_cycle;Max_cycle;Signal;HPM_P1;HPM_P2
2024/01/04 00:01:58;;;;;;;6.13;1.58;;;6.60;99.90;;;;;;5067403;28;20036;-67
2024/01/04 00:04:23;;;;;;;4.10;1.30;;;6.60;99.90;;;;;;5076892;28;20095;-67
2024/01/04 00:06:49;;;;;;;4.40;1.23;;;6.60;99.90;;;;;;5077367;28;20056;-67
2024/01/04 00:09:15;;;;;;;4.88;1.20;;;6.60;99.90;;;;;;5076128;28;20053;-67
2024/01/04 00:11:40;;;;;;;8.80;1.60;;;6.60;99.90;;;;;;5077091;28;20464;-66
2024/01/04 00:14:07;;;;;;;4.90;1.65;;;6.50;99.90;;;;;;5078381;28;20429;-67
2024/01/04 00:16:33;;;;;;;6.32;1.50;;;6.60;99.90;;;;;;5076484;28;20371;-67
2024/01/04 00:18:59;;;;;;;7.38;1.85;;;6.60;99.90;;;;;;5078525;28;20086;-67
2024/01/04 00:21:25;;;;;;;4.45;1.60;;;6.60;99.90;;;;;;5076970;28;20017;-67
2024/01/04 00:23:50;;;;;;;7.22;1.73;;;6.60;99.90;;;;;;5078675;28;20016;-67
2024/01/04 00:26:16;;;;;;;4.90;1.55;;;6.60;99.90;;;;;;5079064;28;20045;-67
2024/01/04 00:28:41;;;;;;;8.73;2.60;;;6.60;99.90;;;;;;5077964;28;20543;-67
2024/01/04 00:31:07;;;;;;;4.28;1.45;;;6.70;99.90;;;;;;5076982;28;20012;-67
2024/01/04 00:33:32;;;;;;;2.30;1.02;;;6.70;99.90;;;;;;5077951;28;20016;-67
2024/01/04 00:35:59;;;;;;;5.35;1.70;;;6.70;99.90;;;;;;5080573;28;20047;-66
2024/01/04 00:38:24;;;;;;;5.53;1.95;;;6.70;99.90;;;;;;5078817;28;20055;-67
2024/01/04 00:40:50;;;;;;;5.53;1.85;;;6.70;99.90;;;;;;5079790;28;20403;-67
2024/01/04 00:43:15;;;;;;;8.13;2.33;;;6.70;99.90;;;;;;5080320;28;20039;-68
2024/01/04 00:45:41;;;;;;;6.32;1.75;;;6.70;99.90;;;;;;5076831;28;20187;-67
2024/01/04 00:48:07;;;;;;;8.48;2.63;;;6.70;99.90;;;;;;5073854;28;20074;-67
2024/01/04 00:50:32;;;;;;;6.60;2.38;;;6.70;99.90;;;;;;5073852;28;20008;-67
2024/01/04 00:52:58;;;;;;;6.13;1.95;;;6.80;99.90;;;;;;5070127;28;20051;-67
2024/01/04 00:55:24;;;;;;;7.85;2.53;;;6.80;99.90;;;;;;5073924;28;20028;-67
2024/01/04 00:57:49;;;;;;;11.88;2.50;;;6.80;99.90;;;;;;5072185;28;20024;-67
2024/01/04 01:00:15;;;;;;;7.50;2.30;;;6.90;99.90;;;;;;5072962;28;20169;-67
2024/01/04 01:02:41;;;;;;;8.98;2.70;;;6.80;99.90;;;;;;5073307;28;20016;-67
2024/01/04 01:05:06;;;;;;;8.23;3.40;;;6.80;99.90;;;;;;5073399;28;20028;-67
2024/01/04 01:07:32;;;;;;;8.15;2.58;;;6.80;99.90;;;;;;5074883;28;20035;-66
2024/01/04 01:09:58;;;;;;;11.75;3.20;;;6.80;99.90;;;;;;5073148;28;20035;-67
2024/01/04 01:12:23;;;;;;;12.88;3.35;;;6.90;99.90;;;;;;5073781;28;20035;-67
2024/01/04 01:14:49;;;;;;;11.00;3.03;;;6.90;99.90;;;;;;5072462;28;20028;-67
2024/01/04 01:17:15;;;;;;;7.63;2.75;;;6.90;99.90;;;;;;5074886;28;20070;-67
2024/01/04 01:19:40;;;;;;;10.00;2.83;;;6.90;99.90;;;;;;5076282;28;20031;-67
2024/01/04 01:22:06;;;;;;;9.68;2.47;;;6.90;99.90;;;;;;5073461;28;20101;-67
2024/01/04 01:24:31;;;;;;;7.30;3.13;;;6.90;99.90;;;;;;5077332;28;20035;-67
2024/01/04 01:26:57;;;;;;;10.13;3.20;;;6.90;99.90;;;;;;5076088;28;20032;-67
2024/01/04 01:29:23;;;;;;;6.93;2.25;;;6.90;99.90;;;;;;5077185;28;20021;-67
2024/01/04 01:31:48;;;;;;;7.18;2.88;;;7.00;99.90;;;;;;5073560;28;20513;-66
2024/01/04 01:34:14;;;;;;;11.65;4.15;;;7.00;99.90;;;;;;5075793;28;20475;-67
2024/01/04 01:36:40;;;;;;;11.95;4.00;;;6.90;99.90;;;;;;5076302;28;20016;-67
2024/01/04 01:39:06;;;;;;;8.27;2.85;;;7.00;99.90;;;;;;5076235;28;20023;-67
2024/01/04 01:41:32;;;;;;;13.38;4.78;;;7.00;99.90;;;;;;5078247;28;20020;-67
2024/01/04 01:43:57;;;;;;;13.57;5.63;;;7.00;99.90;;;;;;5076048;28;20115;-67
2024/01/04 01:46:23;;;;;;;15.30;5.55;;;7.00;99.90;;;;;;5078396;28;20495;-67
2024/01/04 01:48:49;;;;;;;15.07;5.53;;;7.00;99.90;;;;;;5074691;28;20029;-67
2024/01/04 01:51:14;;;;;;;19.55;6.80;;;7.10;99.90;;;;;;5075328;28;20025;-67
2024/01/04 01:53:41;;;;;;;18.35;8.40;;;7.00;99.90;;;;;;5074663;28;20028;-67
2024/01/04 01:56:06;;;;;;;12.82;5.43;;;7.10;99.90;;;;;;5073855;28;20122;-67
2024/01/04 01:58:32;;;;;;;13.48;5.20;;;7.10;99.90;;;;;;5071065;28;20088;-67
2024/01/04 02:00:58;;;;;;;15.18;4.82;;;7.10;99.90;;;;;;5074004;28;20500;-67
2024/01/04 02:03:24;;;;;;;15.13;5.35;;;7.10;99.90;;;;;;5073629;28;20031;-67
2024/01/04 02:05:49;;;;;;;13.55;4.63;;;6.90;99.90;;;;;;5073518;28;20035;-66
2024/01/04 02:08:15;;;;;;;11.13;4.82;;;7.10;99.90;;;;;;5071635;28;20880;-67
2024/01/04 02:10:41;;;;;;;13.25;5.00;;;7.10;99.90;;;;;;5072096;28;20395;-66
2024/01/04 02:13:09;;;;;;;10.98;3.20;;;7.10;99.90;;;;;;5071675;28;20044;-66
2024/01/04 02:15:35;;;;;;;11.15;4.72;;;7.10;99.90;;;;;;5073010;28;20015;-67
2024/01/04 02:18:00;;;;;;;14.25;3.03;;;7.10;99.90;;;;;;5072608;28;20028;-66
2024/01/04 02:20:26;;;;;;;8.05;2.72;;;7.10;99.90;;;;;;5072495;28;20103;-67
2024/01/04 02:22:52;;;;;;;10.02;3.65;;;7.00;99.90;;;;;;5072971;28;20039;-66
2024/01/04 02:25:18;;;;;;;7.03;2.95;;;7.00;99.90;;;;;;5073207;28;20055;-67
2024/01/04 02:27:44;;;;;;;14.85;3.80;;;7.00;99.90;;;;;;5075094;28;20045;-70
2024/01/04 02:30:13;;;;;;;8.15;3.00;;;7.00;99.90;;;;;;5072098;28;20073;-66
2024/01/04 02:32:39;;;;;;;7.85;3.10;;;7.00;99.90;;;;;;5073199;28;20025;-67
2024/01/04 02:35:05;;;;;;;9.38;3.53;;;7.00;99.90;;;;;;5056946;28;20092;-66
2024/01/04 02:37:30;;;;;;;9.48;3.45;;;7.00;99.90;;;;;;5055455;28;20472;-66
2024/01/04 02:39:56;;;;;;;7.25;2.78;;;7.00;99.90;;;;;;5076132;28;20069;-66
2024/01/04 02:42:22;;;;;;;9.27;2.72;;;7.00;99.90;;;;;;5072569;28;20109;-66
2024/01/04 02:44:48;;;;;;;6.72;3.17;;;6.90;99.90;;;;;;5074884;28;20032;-66
2024/01/04 02:47:13;;;;;;;9.95;3.58;;;7.00;99.90;;;;;;5074447;28;20028;-66
2024/01/04 02:49:39;;;;;;;9.50;3.17;;;6.90;99.90;;;;;;5075736;28;20051;-66
2024/01/04 02:52:05;;;;;;;7.72;2.85;;;6.90;99.90;;;;;;5076319;28;20027;-66
2024/01/04 02:54:30;;;;;;;9.00;3.95;;;6.90;99.90;;;;;;5070175;28;20078;-67
2024/01/04 02:56:56;;;;;;;9.70;3.58;;;6.90;99.90;;;;;;5076131;28;20532;-66
2024/01/04 02:59:22;;;;;;;8.70;3.67;;;6.90;99.90;;;;;;5075813;28;20063;-66
2024/01/04 03:01:48;;;;;;;9.25;3.75;;;6.80;99.90;;;;;;5073621;28;20487;-66
2024/01/04 03:04:15;;;;;;;10.57;3.30;;;6.90;99.90;;;;;;5075652;28;20044;-66
2024/01/04 03:06:41;;;;;;;16.60;4.53;;;6.90;99.90;;;;;;5076967;28;20098;-66
2024/01/04 03:09:07;;;;;;;11.73;4.53;;;6.90;99.90;;;;;;5077450;28;20349;-66
2024/01/04 03:11:33;;;;;;;12.07;4.30;;;6.90;99.90;;;;;;5072963;28;20031;-66
2024/01/04 03:13:58;;;;;;;12.45;4.43;;;6.90;99.90;;;;;;5076942;28;20525;-67
2024/01/04 03:16:24;;;;;;;9.93;3.45;;;6.90;99.90;;;;;;5075338;28;20024;-67
2024/01/04 03:18:49;;;;;;;12.23;3.83;;;6.90;99.90;;;;;;5075691;28;20086;-66
2024/01/04 03:21:17;;;;;;;8.43;3.28;;;6.80;99.90;;;;;;5070861;28;20411;-67
2024/01/04 03:23:42;;;;;;;7.93;2.85;;;6.80;99.90;;;;;;5070867;28;20028;-67
2024/01/04 03:26:08;;;;;;;9.93;3.35;;;6.90;99.90;;;;;;5072188;28;20111;-67
2024/01/04 03:28:34;;;;;;;7.32;2.47;;;6.80;99.90;;;;;;5070830;28;20028;-67
2024/01/04 03:30:59;;;;;;;8.02;3.22;;;6.90;99.90;;;;;;5068908;28;20024;-67
2024/01/04 03:33:25;;;;;;;12.15;4.45;;;6.90;99.90;;;;;;5071926;28;20027;-68
2024/01/04 03:35:51;;;;;;;9.93;3.75;;;6.80;99.90;;;;;;5071797;28;20039;-68
2024/01/04 03:38:16;;;;;;;14.88;5.18;;;6.90;99.90;;;;;;5070919;28;20027;-68
2024/01/04 03:40:42;;;;;;;13.65;5.05;;;6.80;99.90;;;;;;5069382;28;20089;-68
2024/01/04 03:43:08;;;;;;;17.35;5.25;;;6.80;99.90;;;;;;5076510;28;20036;-67
2024/01/04 03:45:34;;;;;;;15.82;6.75;;;6.80;99.90;;;;;;5072234;28;20023;-67
2024/01/04 03:48:00;;;;;;;18.20;6.90;;;6.80;99.90;;;;;;5071432;28;20028;-67
2024/01/04 03:50:26;;;;;;;19.02;7.30;;;6.80;99.90;;;;;;5070978;28;20401;-67
2024/01/04 03:52:51;;;;;;;14.88;5.68;;;6.80;99.90;;;;;;5070951;28;20023;-68
2024/01/04 03:55:17;;;;;;;18.45;6.97;;;6.80;99.90;;;;;;5073460;28;20028;-67
2024/01/04 03:57:43;;;;;;;15.73;6.55;;;6.80;99.90;;;;;;5073640;28;20066;-68
2024/01/04 04:00:10;;;;;;;14.55;5.90;;;6.90;99.90;;;;;;5073818;28;20106;-68
2024/01/04 04:02:35;;;;;;;18.75;6.68;;;6.80;99.90;;;;;;5074805;28;20033;-68
2024/01/04 04:05:01;;;;;;;15.13;6.07;;;6.80;99.90;;;;;;5073457;28;20369;-67
2024/01/04 04:07:27;;;;;;;15.05;6.65;;;6.80;99.90;;;;;;5083928;28;20078;-67
2024/01/04 04:09:53;;;;;;;14.38;6.20;;;6.80;99.90;;;;;;5072163;28;20059;-67
2024/01/04 04:12:18;;;;;;;18.02;6.80;;;6.80;99.90;;;;;;5079040;28;20056;-68
2024/01/04 04:14:44;;;;;;;15.25;6.05;;;6.80;99.90;;;;;;5077148;28;20032;-67
2024/01/04 04:17:10;;;;;;;13.20;5.32;;;6.90;99.90;;;;;;5080498;28;20085;-67
2024/01/04 04:19:35;;;;;;;13.70;5.57;;;6.80;99.90;;;;;;5073237;28;20020;-67
2024/01/04 04:22:01;;;;;;;16.75;4.72;;;6.80;99.90;;;;;;5077880;28;20557;-67
2024/01/04 04:24:26;;;;;;;16.83;5.03;;;6.70;99.90;;;;;;5078837;28;20025;-67
2024/01/04 04:26:52;;;;;;;6.53;2.42;;;6.70;99.90;;;;;;5083959;28;20036;-68
2024/01/04 04:29:18;;;;;;;8.38;2.92;;;6.70;99.90;;;;;;5086767;28;20024;-67
2024/01/04 04:31:43;;;;;;;9.95;3.45;;;6.70;99.90;;;;;;5078691;28;20059;-68
2024/01/04 04:34:09;;;;;;;4.88;1.85;;;6.70;99.90;;;;;;5082592;28;20108;-67
2024/01/04 04:36:35;;;;;;;6.28;2.08;;;6.60;99.90;;;;;;5082998;28;20500;-68
2024/01/04 04:39:02;;;;;;;9.38;2.28;;;6.60;99.90;;;;;;5082238;28;20040;-67
2024/01/04 04:41:28;;;;;;;8.52;2.35;;;6.70;99.90;;;;;;5082773;28;20103;-68
2024/01/04 04:43:54;;;;;;;7.57;2.08;;;6.60;99.90;;;;;;5083108;28;20051;-68
2024/01/04 04:46:20;;;;;;;7.88;2.30;;;6.60;99.90;;;;;;5089478;28;20028;-67
2024/01/04 04:48:45;;;;;;;7.95;1.95;;;6.50;99.90;;;;;;5080848;28;20028;-68
2024/01/04 04:51:11;;;;;;;6.55;1.75;;;6.50;99.90;;;;;;5080933;28;20103;-67
2024/01/04 04:53:37;;;;;;;6.63;1.38;;;6.50;99.90;;;;;;5084513;28;20101;-68
2024/01/04 04:56:03;;;;;;;5.72;1.30;;;6.50;99.90;;;;;;5088134;28;20169;-67
2024/01/04 04:58:29;;;;;;;8.85;1.80;;;6.40;99.90;;;;;;5084642;28;20020;-67
2024/01/04 05:00:55;;;;;;;5.72;1.33;;;6.40;99.90;;;;;;5079230;28;20047;-67
2024/01/04 05:03:21;;;;;;;6.18;1.65;;;6.40;99.90;;;;;;5085959;28;20551;-67
2024/01/04 05:05:47;;;;;;;6.55;1.77;;;6.40;99.90;;;;;;5075097;28;20082;-68
2024/01/04 05:08:12;;;;;;;9.13;1.55;;;6.40;99.90;;;;;;5083143;28;20028;-67
2024/01/04 05:10:38;;;;;;;5.78;1.83;;;6.40;99.90;;;;;;5077816;28;20035;-68
2024/01/04 05:13:04;;;;;;;8.43;1.60;;;6.40;99.90;;;;;;5069455;28;20036;-67
2024/01/04 05:15:29;;;;;;;8.63;2.00;;;6.40;99.90;;;;;;5080507;28;20047;-68
2024/01/04 05:17:55;;;;;;;4.63;1.42;;;6.30;99.90;;;;;;5079202;28;20420;-67
2024/01/04 05:20:21;;;;;;;7.72;1.70;;;6.40;99.90;;;;;;5079647;28;20028;-67
2024/01/04 05:22:46;;;;;;;5.05;1.77;;;6.30;99.90;;;;;;5074213;28;20020;-68
2024/01/04 05:25:12;;;;;;;6.63;2.08;;;6.30;99.90;;;;;;5081834;28;20040;-68
2024/01/04 05:27:38;;;;;;;5.90;1.52;;;6.20;99.90;;;;;;5074316;28;20020;-67
2024/01/04 05:30:07;;;;;;;7.03;1.70;;;6.30;99.90;;;;;;5077415;28;20019;-67
2024/01/04 05:32:36;;;;;;;4.55;1.38;;;6.30;99.90;;;;;;5075075;28;20025;-68
2024/01/04 05:35:02;;;;;;;2.45;1.00;;;6.20;99.90;;;;;;5075290;28;20093;-68
2024/01/04 05:37:28;;;;;;;3.17;1.38;;;6.20;99.90;;;;;;5079489;28;20048;-67
2024/01/04 05:39:54;;;;;;;5.00;1.33;;;6.20;99.90;;;;;;5072863;28;20127;-67
2024/01/04 05:42:19;;;;;;;4.65;1.40;;;6.20;99.90;;;;;;5071255;28;20510;-67
2024/01/04 05:44:45;;;;;;;5.97;1.70;;;6.20;99.90;;;;;;5072907;28;20033;-67
2024/01/04 05:47:11;;;;;;;9.35;1.83;;;6.20;99.90;;;;;;5074087;28;20644;-67
2024/01/04 05:49:37;;;;;;;9.63;1.80;;;6.20;99.90;;;;;;5072812;28;20077;-67
2024/01/04 05:52:03;;;;;;;7.15;1.73;;;6.20;99.90;;;;;;5075913;28;20048;-67
2024/01/04 05:54:29;;;;;;;3.35;1.20;;;6.20;99.90;;;;;;5074435;28;20640;-67
2024/01/04 05:56:55;;;;;;;9.00;2.08;;;6.10;99.90;;;;;;5072071;28;20024;-67
2024/01/04 05:59:24;;;;;;;6.32;1.80;;;6.10;99.90;;;;;;5074470;28;20028;-67
2024/01/04 06:01:50;;;;;;;4.05;1.33;;;6.20;99.90;;;;;;5072984;28;20044;-66
2024/01/04 06:04:16;;;;;;;6.00;1.70;;;6.10;99.90;;;;;;5077860;28;20475;-66
2024/01/04 06:06:42;;;;;;;3.45;1.40;;;6.10;99.90;;;;;;5075603;28;20031;-67
2024/01/04 06:09:07;;;;;;;9.13;1.80;;;6.10;99.90;;;;;;5078839;28;20020;-66
2024/01/04 06:11:33;;;;;;;5.47;1.60;;;6.10;99.90;;;;;;5074227;28;20016;-67
2024/01/04 06:13:59;;;;;;;4.30;1.40;;;6.10;99.90;;;;;;5074562;28;20033;-67
2024/01/04 06:16:24;;;;;;;7.95;1.70;;;6.10;99.90;;;;;;5074394;28;20020;-66
2024/01/04 06:18:51;;;;;;;7.32;1.70;;;6.10;99.90;;;;;;5073429;28;20040;-66
2024/01/04 06:21:17;;;;;;;4.35;1.50;;;6.10;99.90;;;;;;5073406;28;20024;-66
2024/01/04 06:23:42;;;;;;;8.68;1.90;;;6.00;99.90;;;;;;5078123;28;20032;-66
2024/01/04 06:26:08;;;;;;;7.25;1.90;;;6.10;99.90;;;;;;5086614;28;20114;-67
2024/01/04 06:28:36;;;;;;;6.65;1.63;;;6.10;99.90;;;;;;5071803;28;20021;-65
2024/01/04 06:31:02;;;;;;;6.30;1.88;;;6.00;99.90;;;;;;5060070;28;20500;-67
2024/01/04 06:33:28;;;;;;;6.50;1.90;;;6.00;99.90;;;;;;5069640;28;20095;-67
2024/01/04 06:35:53;;;;;;;8.50;2.13;;;6.00;99.90;;;;;;5075503;28;20070;-66
2024/01/04 06:38:20;;;;;;;4.25;1.65;;;6.00;99.90;;;;;;5076509;28;20115;-66
2024/01/04 06:40:46;;;;;;;5.85;2.03;;;6.00;99.90;;;;;;5076703;28;20017;-66
2024/01/04 06:43:12;;;;;;;5.90;1.88;;;6.20;99.90;;;;;;5080547;28;20024;-66
2024/01/04 06:45:38;;;;;;;6.70;1.95;;;6.10;99.90;;;;;;5074584;28;20447;-67
2024/01/04 06:48:04;;;;;;;7.72;2.55;;;6.10;99.90;;;;;;5079412;28;20491;-66
2024/01/04 06:50:30;;;;;;;5.57;1.98;;;6.10;99.90;;;;;;5075841;28;20602;-67
2024/01/04 06:52:56;;;;;;;7.40;2.55;;;6.10;99.90;;;;;;5080472;28;20020;-66
2024/01/04 06:55:23;;;;;;;7.82;2.42;;;6.10;99.90;;;;;;5081306;28;20027;-68
2024/01/04 06:57:48;;;;;;;6.55;2.63;;;6.10;99.90;;;;;;5074036;28;20016;-67
2024/01/04 07:00:15;;;;;;;13.40;3.67;;;6.10;99.90;;;;;;5072633;28;20555;-67
2024/01/04 07:02:41;;;;;;;9.05;3.05;;;6.10;99.90;;;;;;5072098;28;20123;-68
2024/01/04 07:05:09;;;;;;;7.13;2.50;;;6.10;99.90;;;;;;5082340;28;20140;-67
2024/01/04 07:07:36;;;;;;;8.93;3.22;;;6.10;99.90;;;;;;5070355;28;20074;-67
2024/01/04 07:10:02;;;;;;;10.43;3.22;;;6.10;99.90;;;;;;5076217;28;20082;-67
2024/01/04 07:12:28;;;;;;;7.40;2.63;;;6.10;99.90;;;;;;5079012;28;20119;-67
2024/01/04 07:14:54;;;;;;;8.13;2.55;;;6.10;99.90;;;;;;5076566;28;20043;-67
2024/01/04 07:17:23;;;;;;;6.43;2.33;;;6.10;99.90;;;;;;5081187;28;20048;-68
2024/01/04 07:19:48;;;;;;;6.78;2.38;;;6.00;99.90;;;;;;5081396;28;20031;-68
2024/01/04 07:22:17;;;;;;;7.82;2.55;;;6.10;99.90;;;;;;5081863;28;20028;-68
2024/01/04 07:24:43;;;;;;;6.40;2.15;;;6.10;99.90;;;;;;5067858;28;20033;-67
2024/01/04 07:27:09;;;;;;;8.48;2.38;;;6.10;99.90;;;;;;5075606;28;20073;-67
2024/01/04 07:29:35;;;;;;;10.95;2.72;;;6.10;99.90;;;;;;5077892;28;20087;-67
2024/01/04 07:32:00;;;;;;;7.38;2.50;;;6.20;99.90;;;;;;5074974;28;20554;-67
2024/01/04 07:34:26;;;;;;;5.45;1.80;;;6.20;99.90;;;;;;5078431;28;20024;-67
2024/01/04 07:36:52;;;;;;;7.70;2.85;;;6.20;99.90;;;;;;5076049;28;20498;-67
2024/01/04 07:39:18;;;;;;;6.80;2.58;;;6.20;99.90;;;;;;5084803;28;20017;-67
2024/01/04 07:41:43;;;;;;;8.52;2.88;;;6.20;99.90;;;;;;5077842;28;20028;-67
2024/01/04 07:44:10;;;;;;;8.55;2.90;;;6.20;99.90;;;;;;5076519;28;20056;-67
2024/01/04 07:46:36;;;;;;;10.30;3.40;;;6.20;99.90;;;;;;5077582;28;20020;-67
2024/01/04 07:49:04;;;;;;;11.75;3.60;;;6.20;99.90;;;;;;5085887;28;20495;-68
2024/01/04 07:51:30;;;;;;;10.60;3.50;;;6.20;99.90;;;;;;5075753;28;20036;-67
2024/01/04 07:53:55;;;;;;;10.20;3.75;;;6.20;99.90;;;;;;5086489;28;20158;-68
2024/01/04 07:56:21;;;;;;;11.85;4.07;;;6.20;99.90;;;;;;5077245;28;20111;-68
2024/01/04 07:58:47;;;;;;;10.95;4.03;;;6.20;99.90;;;;;;5078816;28;20534;-68
2024/01/04 08:01:13;;;;;;;11.68;4.75;;;6.20;99.90;;;;;;5069247;28;20071;-68
2024/01/04 08:03:39;;;;;;;12.35;5.25;;;6.30;99.90;;;;;;5075622;28;20032;-68
2024/01/04 08:06:05;;;;;;;14.60;5.22;;;6.30;99.90;;;;;;5082627;28;20556;-68
2024/01/04 08:08:31;;;;;;;14.25;5.97;;;6.30;99.90;;;;;;5078182;28;20020;-68
2024/01/04 08:10:59;;;;;;;13.07;5.57;;;6.30;99.90;;;;;;5077202;28;20013;-68
2024/01/04 08:13:25;;;;;;;14.85;5.90;;;6.20;99.90;;;;;;5075734;28;20038;-68
2024/01/04 08:15:51;;;;;;;16.08;5.53;;;6.30;99.90;;;;;;5078372;28;20356;-68
2024/01/04 08:18:17;;;;;;;14.73;6.00;;;6.20;99.90;;;;;;5076730;28;20032;-67
2024/01/04 08:20:43;;;;;;;16.17;6.43;;;6.30;99.90;;;;;;5069259;28;20593;-68
2024/01/04 08:23:08;;;;;;;16.42;7.03;;;6.50;99.90;;;;;;5077178;28;20039;-67
2024/01/04 08:25:34;;;;;;;17.35;7.93;;;6.40;99.90;;;;;;5075871;28;20870;-67
2024/01/04 08:27:59;;;;;;;17.45;8.25;;;6.50;99.90;;;;;;5074683;28;20032;-67
2024/01/04 08:30:25;;;;;;;19.60;9.07;;;6.50;99.90;;;;;;5069801;28;20040;-68
2024/01/04 08:32:51;;;;;;;17.83;7.85;;;6.50;99.90;;;;;;5056151;28;20052;-68
2024/01/04 08:35:17;;;;;;;15.70;7.85;;;6.40;99.90;;;;;;5077108;28;20043;-67
2024/01/04 08:37:45;;;;;;;16.45;6.97;;;6.50;99.90;;;;;;5056551;28;20506;-68
2024/01/04 08:40:12;;;;;;;21.67;9.65;;;6.50;99.90;;;;;;5077534;28;20044;-67
2024/01/04 08:42:38;;;;;;;15.20;6.70;;;6.50;99.90;;;;;;5074292;28;20034;-67
2024/01/04 08:45:05;;;;;;;14.85;5.78;;;6.50;99.90;;;;;;5073953;28;20040;-67
2024/01/04 08:47:31;;;;;;;14.75;5.65;;;6.40;99.90;;;;;;5048895;28;20032;-67
2024/01/04 08:50:00;;;;;;;11.20;4.75;;;6.40;99.90;;;;;;5076112;28;20122;-67
2024/01/04 08:52:26;;;;;;;11.73;4.78;;;6.30;99.90;;;;;;5073700;28;20104;-67
2024/01/04 08:54:52;;;;;;;8.63;3.92;;;6.40;99.90;;;;;;5082613;28;20024;-67
2024/01/04 08:57:17;;;;;;;5.85;2.45;;;6.30;99.90;;;;;;5075533;28;20414;-66
2024/01/04 08:59:43;;;;;;;11.25;4.15;;;6.40;99.90;;;;;;5075799;28;20111;-67
2024/01/04 09:02:09;;;;;;;11.80;5.03;;;6.40;99.90;;;;;;5076566;28;20016;-67
2024/01/04 09:04:35;;;;;;;12.40;5.28;;;6.40;99.90;;;;;;5069939;28;20110;-67
2024/01/04 09:07:00;;;;;;;13.88;5.75;;;6.50;99.90;;;;;;5082949;28;20463;-67
2024/01/04 09:09:26;;;;;;;17.38;5.80;;;6.40;99.90;;;;;;5073577;28;20031;-67
2024/01/04 09:11:52;;;;;;;14.93;5.70;;;6.40;99.90;;;;;;5080666;28;20042;-67
2024/01/04 09:14:17;;;;;;;14.85;5.97;;;6.50;99.90;;;;;;5070299;28;20036;-67
2024/01/04 09:16:44;;;;;;;9.02;3.50;;;6.60;99.90;;;;;;5077673;28;20020;-67
2024/01/04 09:19:17;;;;;;;16.10;4.85;;;6.60;99.90;;;;;;5079967;28;20021;-67
2024/01/04 09:21:43;;;;;;;13.55;4.97;;;6.60;99.90;;;;;;5080257;28;20172;-67
2024/01/04 09:24:11;;;;;;;10.43;4.40;;;6.60;99.90;;;;;;5076459;28;20048;-67
2024/01/04 09:26:43;;;;;;;8.88;3.33;;;6.60;99.90;;;;;;5074313;28;20103;-68
2024/01/04 09:29:09;;;;;;;11.30;4.40;;;6.70;99.90;;;;;;5077519;28;20130;-68
2024/01/04 09:31:35;;;;;;;11.73;4.18;;;6.70;99.90;;;;;;5077231;28;20099;-68
2024/01/04 09:34:01;;;;;;;11.88;4.53;;;6.70;99.90;;;;;;5074863;28;20107;-68
2024/01/04 09:36:27;;;;;;;12.75;4.50;;;6.70;99.90;;;;;;5072288;28;20085;-68
2024/01/04 09:38:52;;;;;;;7.47;2.97;;;6.70;99.90;;;;;;5078945;28;20032;-68
2024/01/04 09:41:31;;;;;;;11.68;5.10;;;6.70;99.90;;;;;;5075895;28;20031;-68
2024/01/04 09:44:03;;;;;;;13.30;4.80;;;6.70;99.90;;;;;;5075217;28;20115;-68
2024/01/04 09:46:39;;;;;;;10.30;4.25;;;6.70;99.90;;;;;;5078098;28;20055;-68
2024/01/04 09:49:06;;;;;;;11.75;4.15;;;6.80;99.90;;;;;;5076939;28;20025;-68
2024/01/04 09:51:40;;;;;;;10.32;4.70;;;6.80;99.90;;;;;;5079500;28;20028;-67
2024/01/04 09:54:09;;;;;;;10.45;4.60;;;6.80;99.90;;;;;;5078578;28;20023;-68
2024/01/04 09:56:39;;;;;;;14.10;5.25;;;6.90;99.90;;;;;;5077552;28;20086;-68
2024/01/04 09:59:05;;;;;;;10.75;4.32;;;6.90;99.90;;;;;;5075484;28;20028;-68
2024/01/04 10:01:35;;;;;;;10.48;4.82;;;7.00;99.90;;;;;;5075746;28;20056;-68
2024/01/04 10:04:12;;;;;;;7.15;3.28;;;7.00;99.90;;;;;;5071877;28;20036;-68
2024/01/04 10:06:39;;;;;;;15.32;4.60;;;7.00;99.90;;;;;;5077937;28;20039;-68
2024/01/04 10:09:25;;;;;;;18.00;5.55;;;7.00;99.90;;;;;;5074666;28;20090;-68
2024/01/04 10:11:57;;;;;;;14.90;5.30;;;7.00;99.90;;;;;;5068226;28;20023;-68
2024/01/04 10:14:23;;;;;;;13.90;5.28;;;;;;;;;;5068513;28;20113;-68
2024/01/04 10:16:51;;;;;;;10.73;3.92;;;7.00;99.90;;;;;;5078171;28;20440;-69
2024/01/04 10:19:17;;;;;;;12.68;5.88;;;7.10;99.90;;;;;;5073200;28;20119;-68
2024/01/04 10:21:42;;;;;;;11.43;5.05;;;7.20;99.90;;;;;;5071703;28;20170;-68
2024/01/04 10:24:13;;;;;;;14.23;5.72;;;7.10;99.90;;;;;;5076538;28;20032;-68
2024/01/04 10:26:39;;;;;;;;;;;7.00;99.90;;;;;;5074712;28;20028;-68
2024/01/04 10:29:06;;;;;;;11.98;4.68;;;7.20;99.90;;;;;;5069714;28;19916;-68
2024/01/04 10:31:32;;;;;;;18.52;7.90;;;7.10;99.90;;;;;;5074564;28;20028;-68
2024/01/04 10:33:59;;;;;;;24.58;8.60;;;7.10;99.90;;;;;;5079082;28;20367;-68
2024/01/04 10:36:28;;;;;;;21.75;9.02;;;7.20;99.90;;;;;;5071644;28;20033;-67
2024/01/04 10:38:58;;;;;;;19.63;8.85;;;7.20;99.90;;;;;;5077077;28;20432;-67
2024/01/04 10:41:30;;;;;;;20.63;10.05;;;7.20;99.90;;;;;;5073572;28;20023;-67
2024/01/04 10:44:05;;;;;;;26.00;9.75;;;7.20;99.90;;;;;;5073939;28;20087;-67
2024/01/04 10:46:32;;;;;;;23.52;10.50;;;7.20;99.90;;;;;;5074423;28;20025;-68
2024/01/04 10:48:58;;;;;;;16.70;7.40;;;7.20;99.90;;;;;;5065534;28;20056;-67
2024/01/04 10:51:26;;;;;;;22.25;9.07;;;7.20;99.90;;;;;;5068276;28;20530;-67
2024/01/04 10:53:57;;;;;;;26.40;9.77;;;7.20;99.90;;;;;;5060427;28;20841;-68
2024/01/04 10:56:24;;;;;;;18.75;8.27;;;7.20;99.90;;;;;;5054597;28;20016;-68
2024/01/04 10:58:52;;;;;;;20.60;7.03;;;7.10;99.90;;;;;;5061497;28;20033;-67
2024/01/04 11:01:18;;;;;;;17.13;7.40;;;7.10;99.90;;;;;;5051518;28;20059;-67
2024/01/04 11:03:46;;;;;;;25.20;10.05;;;7.10;99.90;;;;;;5071998;28;20539;-68
2024/01/04 11:06:14;;;;;;;14.73;6.70;;;7.00;99.90;;;;;;5073984;28;20062;-67
2024/01/04 11:08:41;;;;;;;22.38;10.30;;;7.10;99.90;;;;;;5069614;28;20050;-68
2024/01/04 11:11:09;;;;;;;25.25;8.25;;;7.10;99.90;;;;;;5071219;28;20032;-67
2024/01/04 11:13:35;;;;;;;12.93;6.57;;;7.10;99.90;;;;;;5064970;28;20028;-67
2024/01/04 11:16:21;;;;;;;13.18;5.47;;;7.10;99.90;;;;;;5061995;28;20013;-67
2024/01/04 11:18:59;;;;;;;13.18;5.18;;;7.10;99.90;;;;;;5068749;28;20056;-68
2024/01/04 11:21:58;;;;;;;14.98;6.57;;;7.20;99.90;;;;;;5069149;28;20032;-68
2024/01/04 11:24:45;;;;;;;14.75;6.15;;;7.20;99.90;;;;;;5064854;28;20043;-67
2024/01/04 11:27:14;;;;;;;13.43;6.05;;;7.30;99.90;;;;;;5070024;28;20032;-67
2024/01/04 11:29:41;;;;;;;16.83;8.38;;;7.30;99.90;;;;;;5071098;28;20016;-67
2024/01/04 11:32:07;;;;;;;11.13;4.53;;;7.30;99.90;;;;;;5070554;28;20020;-67
2024/01/04 11:34:33;;;;;;;15.50;5.68;;;7.20;99.90;;;;;;5069620;28;20044;-67
2024/01/04 11:37:19;;;;;;;11.52;5.07;;;7.20;99.90;;;;;;5073106;28;20029;-68
2024/01/04 11:40:13;;;;;;;13.07;5.25;;;7.10;99.90;;;;;;5072872;28;20026;-67
2024/01/04 11:42:42;;;;;;;12.85;4.63;;;7.00;99.90;;;;;;5087706;28;20107;-67
2024/01/04 11:45:16;;;;;;;7.68;3.72;;;7.00;99.90;;;;;;5073209;28;20028;-68
2024/01/04 11:47:44;;;;;;;11.90;4.65;;;7.00;99.90;;;;;;5078200;28;20498;-67
2024/01/04 11:50:18;;;;;;;14.07;4.05;;;6.90;99.90;;;;;;5080038;28;20412;-67
2024/01/04 11:52:46;;;;;;;9.82;3.20;;;6.90;99.90;;;;;;5068470;28;20090;-67
2024/01/04 11:55:24;;;;;;;11.00;4.10;;;6.90;99.90;;;;;;5076829;28;20024;-67
2024/01/04 11:57:50;;;;;;;9.70;3.47;;;6.80;99.90;;;;;;5074827;28;20024;-67
2024/01/04 12:00:17;;;;;;;13.98;4.40;;;6.90;99.90;;;;;;5076312;28;20101;-67
2024/01/04 12:02:42;;;;;;;11.15;4.65;;;6.80;99.90;;;;;;5081343;28;20104;-67
2024/01/04 12:05:09;;;;;;;13.57;5.40;;;6.80;99.90;;;;;;5078246;28;20132;-67
2024/01/04 12:07:36;;;;;;;12.98;6.10;;;6.90;99.90;;;;;;5074523;28;20028;-67
2024/01/04 12:10:02;;;;;;;14.75;5.82;;;6.90;99.90;;;;;;5080807;28;20033;-67
2024/01/04 12:12:27;;;;;;;13.43;6.20;;;7.00;99.90;;;;;;5077942;28;20034;-67
2024/01/04 12:14:53;;;;;;;13.43;5.50;;;7.00;99.90;;;;;;5077346;28;20037;-67
2024/01/04 12:17:19;;;;;;;13.38;5.35;;;7.00;99.90;;;;;;5080363;28;20090;-68
2024/01/04 12:19:45;;;;;;;15.75;5.90;;;7.10;99.90;;;;;;5081662;28;20089;-68
2024/01/04 12:22:10;;;;;;;17.17;6.45;;;7.10;99.90;;;;;;5080495;28;20050;-67
2024/01/04 12:24:42;;;;;;;14.25;6.05;;;7.20;99.90;;;;;;5082688;28;20456;-68
2024/01/04 12:27:08;;;;;;;13.43;5.15;;;7.30;99.90;;;;;;5070597;28;20047;-67
2024/01/04 12:29:34;;;;;;;13.18;5.60;;;7.40;99.90;;;;;;5072001;28;20074;-67
2024/01/04 12:32:00;;;;;;;11.85;4.15;;;7.40;99.90;;;;;;5072054;28;20024;-68
2024/01/04 12:34:25;;;;;;;12.95;6.38;;;7.50;99.90;;;;;;5067320;28;20025;-67
2024/01/04 12:36:51;;;;;;;11.38;5.13;;;7.50;99.90;;;;;;5075908;28;20027;-68
2024/01/04 12:39:16;;;;;;;9.68;4.43;;;7.50;99.90;;;;;;5078331;28;20035;-67
2024/01/04 12:41:48;;;;;;;10.63;4.45;;;7.50;99.90;;;;;;5079497;28;20483;-67
2024/01/04 12:44:14;;;;;;;11.20;4.70;;;7.50;99.90;;;;;;5080842;28;20055;-67
2024/01/04 12:46:41;;;;;;;8.30;3.28;;;7.50;99.90;;;;;;5082753;28;20020;-67
2024/01/04 12:49:10;;;;;;;11.68;3.53;;;7.50;99.90;;;;;;5075271;28;20028;-67
2024/01/04 12:51:39;;;;;;;8.32;3.65;;;7.50;99.90;;;;;;5071163;28;20024;-67